sensor_id;sensor_type;location;lat;lon;timestamp;temperature;humidity
10010;DHT22;5044;48.652;9.250;2023-03-01T00:01:31;-2.10;99.90
10010;DHT22;5044;48.652;9.250;2023-03-01T00:03:58;-2.00;99.90
10010;DHT22;5044;48.652;9.250;2023-03-01T00:06:26;-2.10;99.90
10010;DHT22;5044;48.652;9.250;2023-03-01T00:08:53;-2.10;99.90
10010;DHT22;5044;48.652;9.250;2023-03-01T00:11:23;-2.00;99.90
10010;DHT22;5044;48.652;9.250;2023-03-01T00:13:52;-2.00;99.90
10010;DHT22;5044;48.652;9.250;2023-03-01T00:16:21;-2.00;99.90
10010;DHT22;5044;48.652;9.250;2023-03-01T00:18:49;-2.00;99.90
10010;DHT22;5044;48.652;9.250;2023-03-01T00:21:16;-2.10;99.90
10010;DHT22;5044;48.652;9.250;2023-03-01T00:23:43;-2.10;99.90
10010;DHT22;5044;48.652;9.250;2023-03-01T00:26:12;-2.10;99.90
10010;DHT22;5044;48.652;9.250;2023-03-01T00:28:41;-2.20;99.90
10010;DHT22;5044;48.652;9.250;2023-03-01T00:31:12;-2.10;99.90
10010;DHT22;5044;48.652;9.250;2023-03-01T00:33:39;-2.10;99.90
10010;DHT22;5044;48.652;9.250;2023-03-01T00:36:07;-2.20;99.90
10010;DHT22;5044;48.652;9.250;2023-03-01T00:38:35;-2.20;99.90
10010;DHT22;5044;48.652;9.250;2023-03-01T00:41:04;-2.20;99.90
10010;DHT22;5044;48.652;9.250;2023-03-01T00:43:31;-2.20;99.90
10010;DHT22;5044;48.652;9.250;2023-03-01T00:46:05;-2.30;99.90
10010;DHT22;5044;48.652;9.250;2023-03-01T00:48:33;-2.20;99.90
10010;DHT22;5044;48.652;9.250;2023-03-01T00:51:04;-2.30;99.90
10010;DHT22;5044;48.652;9.250;2023-03-01T00:53:32;-2.30;99.90
10010;DHT22;5044;48.652;9.250;2023-03-01T00:55:59;-2.30;99.90
10010;DHT22;5044;48.652;9.250;2023-03-01T00:58:26;-2.30;99.90
10010;DHT22;5044;48.652;9.250;2023-03-01T01:00:53;-2.30;99.90
10010;DHT22;5044;48.652;9.250;2023-03-01T01:03:22;-2.30;99.90
10010;DHT22;5044;48.652;9.250;2023-03-01T01:05:50;-2.30;99.90
10010;DHT22;5044;48.652;9.250;2023-03-01T01:08:17;-2.30;99.90
10010;DHT22;5044;48.652;9.250;2023-03-01T01:10:44;-2.40;99.90
10010;DHT22;5044;48.652;9.250;2023-03-01T01:13:11;-2.40;99.90
10010;DHT22;5044;48.652;9.250;2023-03-01T01:15:39;-2.40;99.90
10010;DHT22;5044;48.652;9.250;2023-03-01T01:18:06;-2.50;99.90
10010;DHT22;5044;48.652;9.250;2023-03-01T01:20:35;-2.50;99.90
10010;DHT22;5044;48.652;9.250;2023-03-01T01:23:05;-2.50;99.90
10010;DHT22;5044;48.652;9.250;2023-03-01T01:25:34;-2.50;99.90
10010;DHT22;5044;48.652;9.250;2023-03-01T01:28:01;-2.60;99.90
10010;DHT22;5044;48.652;9.250;2023-03-01T01:30:28;-2.30;99.90
10010;DHT22;5044;48.652;9.250;2023-03-01T01:32:55;-2.70;99.90
10010;DHT22;5044;48.652;9.250;2023-03-01T01:35:22;-2.70;99.90
10010;DHT22;5044;48.652;9.250;2023-03-01T01:37:50;-2.60;99.90
10010;DHT22;5044;48.652;9.250;2023-03-01T01:40:17;-2.60;99.90
10010;DHT22;5044;48.652;9.250;2023-03-01T01:42:44;-2.60;99.90
10010;DHT22;5044;48.652;9.250;2023-03-01T01:45:31;-2.50;99.90
10010;DHT22;5044;48.652;9.250;2023-03-01T01:48:01;-2.50;99.90
10010;DHT22;5044;48.652;9.250;2023-03-01T01:50:30;-2.50;99.90
10010;DHT22;5044;48.652;9.250;2023-03-01T01:53:13;-2.50;99.90
10010;DHT22;5044;48.652;9.250;2023-03-01T01:55:44;-2.40;99.90
10010;DHT22;5044;48.652;9.250;2023-03-01T01:58:15;-2.30;99.90
10010;DHT22;5044;48.652;9.250;2023-03-01T02:00:44;-2.30;99.90
10010;DHT22;5044;48.652;9.250;2023-03-01T02:03:14;-2.30;99.90
10010;DHT22;5044;48.652;9.250;2023-03-01T02:05:47;-2.30;99.90
10010;DHT22;5044;48.652;9.250;2023-03-01T02:08:19;-2.30;99.90
10010;DHT22;5044;48.652;9.250;2023-03-01T02:10:48;-2.30;99.90
10010;DHT22;5044;48.652;9.250;2023-03-01T02:13:16;-2.20;99.90
10010;DHT22;5044;48.652;9.250;2023-03-01T02:15:43;-2.20;99.90
10010;DHT22;5044;48.652;9.250;2023-03-01T02:18:12;-2.10;99.90
10010;DHT22;5044;48.652;9.250;2023-03-01T02:20:49;-2.10;99.90
10010;DHT22;5044;48.652;9.250;2023-03-01T02:23:19;-2.10;99.90
10010;DHT22;5044;48.652;9.250;2023-03-01T02:25:53;-2.00;99.90
10010;DHT22;5044;48.652;9.250;2023-03-01T02:28:38;-2.00;99.90
10010;DHT22;5044;48.652;9.250;2023-03-01T02:31:07;-1.90;99.90
10010;DHT22;5044;48.652;9.250;2023-03-01T02:33:53;-1.90;99.90
10010;DHT22;5044;48.652;9.250;2023-03-01T02:36:24;-1.90;99.90
10010;DHT22;5044;48.652;9.250;2023-03-01T02:38:57;-1.90;99.90
10010;DHT22;5044;48.652;9.250;2023-03-01T02:41:27;-1.90;99.90
10010;DHT22;5044;48.652;9.250;2023-03-01T02:43:56;-1.90;99.90
10010;DHT22;5044;48.652;9.250;2023-03-01T02:46:25;-1.80;99.90
10010;DHT22;5044;48.652;9.250;2023-03-01T02:48:54;-1.90;99.90
10010;DHT22;5044;48.652;9.250;2023-03-01T02:51:40;-1.80;99.90
10010;DHT22;5044;48.652;9.250;2023-03-01T02:54:17;-1.80;99.90
10010;DHT22;5044;48.652;9.250;2023-03-01T02:56:47;-1.80;99.90
10010;DHT22;5044;48.652;9.250;2023-03-01T02:59:17;-1.80;99.90
10010;DHT22;5044;48.652;9.250;2023-03-01T03:01:44;-1.80;99.90
10010;DHT22;5044;48.652;9.250;2023-03-01T03:04:14;-1.70;99.90
10010;DHT22;5044;48.652;9.250;2023-03-01T03:06:42;-1.80;99.90
10010;DHT22;5044;48.652;9.250;2023-03-01T03:09:10;-1.70;99.90
10010;DHT22;5044;48.652;9.250;2023-03-01T03:11:37;-1.70;99.90
10010;DHT22;5044;48.652;9.250;2023-03-01T03:14:05;-1.30;99.90
10010;DHT22;5044;48.652;9.250;2023-03-01T03:16:41;-1.70;99.90
10010;DHT22;5044;48.652;9.250;2023-03-01T03:19:08;-1.70;99.90
10010;DHT22;5044;48.652;9.250;2023-03-01T03:21:36;-1.70;99.90
10010;DHT22;5044;48.652;9.250;2023-03-01T03:24:03;-1.70;99.90
10010;DHT22;5044;48.652;9.250;2023-03-01T03:26:30;-1.70;99.90
10010;DHT22;5044;48.652;9.250;2023-03-01T03:28:57;-1.70;99.90
10010;DHT22;5044;48.652;9.250;2023-03-01T03:31:24;-1.70;99.90
10010;DHT22;5044;48.652;9.250;2023-03-01T03:33:53;-1.70;99.90
10010;DHT22;5044;48.652;9.250;2023-03-01T03:36:23;-1.60;99.90
10010;DHT22;5044;48.652;9.250;2023-03-01T03:38:50;-1.60;99.90
10010;DHT22;5044;48.652;9.250;2023-03-01T03:41:18;-1.60;99.90
10010;DHT22;5044;48.652;9.250;2023-03-01T03:43:45;-1.60;99.90
10010;DHT22;5044;48.652;9.250;2023-03-01T03:46:12;-1.60;99.90
10010;DHT22;5044;48.652;9.250;2023-03-01T03:48:40;-1.60;99.90
10010;DHT22;5044;48.652;9.250;2023-03-01T03:51:12;-1.60;99.90
10010;DHT22;5044;48.652;9.250;2023-03-01T03:53:40;-1.60;99.90
10010;DHT22;5044;48.652;9.250;2023-03-01T03:56:07;-1.60;99.90
10010;DHT22;5044;48.652;9.250;2023-03-01T03:58:34;-1.60;99.90
10010;DHT22;5044;48.652;9.250;2023-03-01T04:01:01;-1.60;99.90
10010;DHT22;5044;48.652;9.250;2023-03-01T04:03:29;-1.60;99.90
10010;DHT22;5044;48.652;9.250;2023-03-01T04:06:00;-1.60;99.90
10010;DHT22;5044;48.652;9.250;2023-03-01T04:08:29;-1.60;99.90
10010;DHT22;5044;48.652;9.250;2023-03-01T04:11:01;-1.60;99.90
10010;DHT22;5044;48.652;9.250;2023-03-01T04:13:48;-1.60;99.90
10010;DHT22;5044;48.652;9.250;2023-03-01T04:16:15;-1.60;99.90
10010;DHT22;5044;48.652;9.250;2023-03-01T04:18:43;-1.60;99.90
10010;DHT22;5044;48.652;9.250;2023-03-01T04:21:10;-1.50;99.90
10010;DHT22;5044;48.652;9.250;2023-03-01T04:23:38;-1.50;99.90
10010;DHT22;5044;48.652;9.250;2023-03-01T04:26:18;-1.50;99.90
10010;DHT22;5044;48.652;9.250;2023-03-01T04:28:45;-1.50;99.90
10010;DHT22;5044;48.652;9.250;2023-03-01T04:31:16;-1.50;99.90
10010;DHT22;5044;48.652;9.250;2023-03-01T04:33:46;-1.50;99.90
10010;DHT22;5044;48.652;9.250;2023-03-01T04:36:15;-1.50;99.90
10010;DHT22;5044;48.652;9.250;2023-03-01T04:38:45;-1.50;99.90
10010;DHT22;5044;48.652;9.250;2023-03-01T04:41:14;-1.50;99.90
10010;DHT22;5044;48.652;9.250;2023-03-01T04:43:41;-1.50;99.90
10010;DHT22;5044;48.652;9.250;2023-03-01T04:46:11;-1.50;99.90
10010;DHT22;5044;48.652;9.250;2023-03-01T04:48:40;-1.40;99.90
10010;DHT22;5044;48.652;9.250;2023-03-01T04:51:08;-1.50;99.90
10010;DHT22;5044;48.652;9.250;2023-03-01T04:53:39;-1.50;99.90
10010;DHT22;5044;48.652;9.250;2023-03-01T04:56:08;-1.50;99.90
10010;DHT22;5044;48.652;9.250;2023-03-01T04:58:35;-1.40;99.90
10010;DHT22;5044;48.652;9.250;2023-03-01T05:01:08;-1.40;99.90
10010;DHT22;5044;48.652;9.250;2023-03-01T05:03:41;-1.40;99.90
10010;DHT22;5044;48.652;9.250;2023-03-01T05:06:08;-1.40;99.90
10010;DHT22;5044;48.652;9.250;2023-03-01T05:08:37;-1.50;99.90
10010;DHT22;5044;48.652;9.250;2023-03-01T05:11:05;-0.90;99.90
10010;DHT22;5044;48.652;9.250;2023-03-01T05:13:39;-1.00;99.90
10010;DHT22;5044;48.652;9.250;2023-03-01T05:16:10;-0.60;99.90
10010;DHT22;5044;48.652;9.250;2023-03-01T05:18:40;-1.00;99.90
10010;DHT22;5044;48.652;9.250;2023-03-01T05:21:10;-1.40;99.90
10010;DHT22;5044;48.652;9.250;2023-03-01T05:23:38;-1.20;99.90
10010;DHT22;5044;48.652;9.250;2023-03-01T05:26:07;-1.40;99.90
10010;DHT22;5044;48.652;9.250;2023-03-01T05:28:34;-2.00;99.90
10010;DHT22;5044;48.652;9.250;2023-03-01T05:31:05;-1.40;99.90
10010;DHT22;5044;48.652;9.250;2023-03-01T05:33:36;-1.10;99.90
10010;DHT22;5044;48.652;9.250;2023-03-01T05:36:04;-0.30;99.90
10010;DHT22;5044;48.652;9.250;2023-03-01T05:38:31;-1.40;99.90
10010;DHT22;5044;48.652;9.250;2023-03-01T05:41:00;-1.50;99.90
10010;DHT22;5044;48.652;9.250;2023-03-01T05:43:30;-1.50;99.90
10010;DHT22;5044;48.652;9.250;2023-03-01T05:46:00;-0.80;99.90
10010;DHT22;5044;48.652;9.250;2023-03-01T05:48:29;-1.70;99.90
10010;DHT22;5044;48.652;9.250;2023-03-01T05:50:59;-0.70;99.90
10010;DHT22;5044;48.652;9.250;2023-03-01T05:53:26;-1.80;99.90
10010;DHT22;5044;48.652;9.250;2023-03-01T05:55:53;-1.30;99.90
10010;DHT22;5044;48.652;9.250;2023-03-01T05:58:21;-1.40;99.90
10010;DHT22;5044;48.652;9.250;2023-03-01T06:00:49;-0.90;99.90
10010;DHT22;5044;48.652;9.250;2023-03-01T06:03:17;-0.90;99.90
10010;DHT22;5044;48.652;9.250;2023-03-01T06:05:45;-0.80;99.90
10010;DHT22;5044;48.652;9.250;2023-03-01T06:08:13;-0.90;99.90
10010;DHT22;5044;48.652;9.250;2023-03-01T06:10:40;-1.00;99.90
10010;DHT22;5044;48.652;9.250;2023-03-01T06:13:08;-1.50;99.90
10010;DHT22;5044;48.652;9.250;2023-03-01T06:15:35;-1.00;99.90
10010;DHT22;5044;48.652;9.250;2023-03-01T06:18:02;-1.00;99.90
10010;DHT22;5044;48.652;9.250;2023-03-01T06:20:29;-1.30;99.90
10010;DHT22;5044;48.652;9.250;2023-03-01T06:22:59;-0.70;99.90
10010;DHT22;5044;48.652;9.250;2023-03-01T06:25:27;-1.20;99.90
10010;DHT22;5044;48.652;9.250;2023-03-01T06:27:56;-1.80;99.90
10010;DHT22;5044;48.652;9.250;2023-03-01T06:30:28;-0.80;99.90
10010;DHT22;5044;48.652;9.250;2023-03-01T06:32:57;-1.20;99.90
10010;DHT22;5044;48.652;9.250;2023-03-01T06:35:27;-1.30;99.90
10010;DHT22;5044;48.652;9.250;2023-03-01T06:37:58;-0.60;99.90
10010;DHT22;5044;48.652;9.250;2023-03-01T06:40:43;-1.40;99.90
10010;DHT22;5044;48.652;9.250;2023-03-01T06:43:11;-1.40;99.90
10010;DHT22;5044;48.652;9.250;2023-03-01T06:45:38;-0.90;99.90
10010;DHT22;5044;48.652;9.250;2023-03-01T06:48:06;-1.10;99.90
10010;DHT22;5044;48.652;9.250;2023-03-01T06:50:34;-1.30;99.90
10010;DHT22;5044;48.652;9.250;2023-03-01T06:53:02;-1.50;99.90
10010;DHT22;5044;48.652;9.250;2023-03-01T06:55:32;-0.70;99.90
10010;DHT22;5044;48.652;9.250;2023-03-01T06:58:05;-1.30;99.90
10010;DHT22;5044;48.652;9.250;2023-03-01T07:00:32;-0.70;99.90
10010;DHT22;5044;48.652;9.250;2023-03-01T07:03:07;-1.20;99.90
10010;DHT22;5044;48.652;9.250;2023-03-01T07:05:50;-1.20;99.90
10010;DHT22;5044;48.652;9.250;2023-03-01T07:08:28;-1.20;99.90
10010;DHT22;5044;48.652;9.250;2023-03-01T07:10:58;-0.60;99.90
10010;DHT22;5044;48.652;9.250;2023-03-01T07:13:28;-1.40;99.90
10010;DHT22;5044;48.652;9.250;2023-03-01T07:15:55;-0.50;99.90
10010;DHT22;5044;48.652;9.250;2023-03-01T07:18:25;-1.00;99.90
10010;DHT22;5044;48.652;9.250;2023-03-01T07:21:11;-0.80;99.90
10010;DHT22;5044;48.652;9.250;2023-03-01T07:23:40;-0.40;99.90
10010;DHT22;5044;48.652;9.250;2023-03-01T07:26:15;-0.40;99.90
10010;DHT22;5044;48.652;9.250;2023-03-01T07:28:44;-0.70;99.90
10010;DHT22;5044;48.652;9.250;2023-03-01T07:31:11;-1.10;99.90
10010;DHT22;5044;48.652;9.250;2023-03-01T07:33:40;-0.60;99.90
10010;DHT22;5044;48.652;9.250;2023-03-01T07:36:08;-0.30;99.90
10010;DHT22;5044;48.652;9.250;2023-03-01T07:38:39;-0.50;99.90
10010;DHT22;5044;48.652;9.250;2023-03-01T07:41:06;-0.40;99.90
10010;DHT22;5044;48.652;9.250;2023-03-01T07:43:33;0.20;99.90
10010;DHT22;5044;48.652;9.250;2023-03-01T07:46:03;-0.20;99.90
10010;DHT22;5044;48.652;9.250;2023-03-01T07:48:30;-0.30;99.90
10010;DHT22;5044;48.652;9.250;2023-03-01T07:50:58;1.00;99.90
10010;DHT22;5044;48.652;9.250;2023-03-01T07:53:26;-0.30;99.90
10010;DHT22;5044;48.652;9.250;2023-03-01T07:56:01;0.00;99.90
10010;DHT22;5044;48.652;9.250;2023-03-01T07:58:28;0.20;99.90
10010;DHT22;5044;48.652;9.250;2023-03-01T08:00:55;0.80;99.90
10010;DHT22;5044;48.652;9.250;2023-03-01T08:03:23;0.40;99.90
10010;DHT22;5044;48.652;9.250;2023-03-01T08:05:50;0.50;99.90
10010;DHT22;5044;48.652;9.250;2023-03-01T08:08:17;0.70;99.40
10010;DHT22;5044;48.652;9.250;2023-03-01T08:10:44;0.80;98.20
10010;DHT22;5044;48.652;9.250;2023-03-01T08:13:11;0.80;98.10
10010;DHT22;5044;48.652;9.250;2023-03-01T08:15:38;0.80;98.60
10010;DHT22;5044;48.652;9.250;2023-03-01T08:18:05;1.30;97.30
10010;DHT22;5044;48.652;9.250;2023-03-01T08:20:33;1.40;99.10
10010;DHT22;5044;48.652;9.250;2023-03-01T08:23:00;1.40;97.70
10010;DHT22;5044;48.652;9.250;2023-03-01T08:25:27;1.50;95.20
10010;DHT22;5044;48.652;9.250;2023-03-01T08:27:54;1.60;96.80
10010;DHT22;5044;48.652;9.250;2023-03-01T08:30:21;1.90;97.20
10010;DHT22;5044;48.652;9.250;2023-03-01T08:32:50;2.20;95.60
10010;DHT22;5044;48.652;9.250;2023-03-01T08:35:17;2.30;94.00
10010;DHT22;5044;48.652;9.250;2023-03-01T08:37:45;2.70;94.30
10010;DHT22;5044;48.652;9.250;2023-03-01T08:40:13;3.30;93.10
10010;DHT22;5044;48.652;9.250;2023-03-01T08:42:41;2.80;91.20
10010;DHT22;5044;48.652;9.250;2023-03-01T08:45:10;3.00;90.30
10010;DHT22;5044;48.652;9.250;2023-03-01T08:47:38;2.50;90.40
10010;DHT22;5044;48.652;9.250;2023-03-01T08:50:05;3.30;87.00
10010;DHT22;5044;48.652;9.250;2023-03-01T08:52:32;3.50;90.00
10010;DHT22;5044;48.652;9.250;2023-03-01T08:55:01;3.50;83.30
10010;DHT22;5044;48.652;9.250;2023-03-01T08:57:28;4.10;86.50
10010;DHT22;5044;48.652;9.250;2023-03-01T08:59:55;4.00;90.40
10010;DHT22;5044;48.652;9.250;2023-03-01T09:02:22;4.50;85.30
10010;DHT22;5044;48.652;9.250;2023-03-01T09:04:49;4.60;83.10
10010;DHT22;5044;48.652;9.250;2023-03-01T09:07:16;4.00;80.90
10010;DHT22;5044;48.652;9.250;2023-03-01T09:09:43;4.40;73.70
10010;DHT22;5044;48.652;9.250;2023-03-01T09:12:11;4.60;78.30
10010;DHT22;5044;48.652;9.250;2023-03-01T09:14:38;5.40;82.10
10010;DHT22;5044;48.652;9.250;2023-03-01T09:17:06;4.80;74.30
10010;DHT22;5044;48.652;9.250;2023-03-01T09:19:33;5.00;72.30
10010;DHT22;5044;48.652;9.250;2023-03-01T09:22:00;5.00;71.40
10010;DHT22;5044;48.652;9.250;2023-03-01T09:24:29;5.00;74.50
10010;DHT22;5044;48.652;9.250;2023-03-01T09:26:56;5.50;72.60
10010;DHT22;5044;48.652;9.250;2023-03-01T09:29:24;5.40;73.60
10010;DHT22;5044;48.652;9.250;2023-03-01T09:31:52;5.80;74.50
10010;DHT22;5044;48.652;9.250;2023-03-01T09:34:20;5.80;68.10
10010;DHT22;5044;48.652;9.250;2023-03-01T09:36:49;6.00;70.60
10010;DHT22;5044;48.652;9.250;2023-03-01T09:39:16;6.00;71.50
10010;DHT22;5044;48.652;9.250;2023-03-01T09:41:47;6.00;70.20
10010;DHT22;5044;48.652;9.250;2023-03-01T09:44:29;6.70;71.00
10010;DHT22;5044;48.652;9.250;2023-03-01T09:46:58;6.20;65.90
10010;DHT22;5044;48.652;9.250;2023-03-01T09:49:28;6.40;67.10
10010;DHT22;5044;48.652;9.250;2023-03-01T09:51:58;6.90;67.40
10010;DHT22;5044;48.652;9.250;2023-03-01T09:54:26;6.90;66.00
10010;DHT22;5044;48.652;9.250;2023-03-01T09:57:13;6.90;67.70
10010;DHT22;5044;48.652;9.250;2023-03-01T10:02:58;7.00;65.20
10010;DHT22;5044;48.652;9.250;2023-03-01T10:05:36;7.10;66.20
10010;DHT22;5044;48.652;9.250;2023-03-01T10:08:24;7.20;64.60
10010;DHT22;5044;48.652;9.250;2023-03-01T10:10:55;7.30;62.20
10010;DHT22;5044;48.652;9.250;2023-03-01T10:13:27;7.60;62.30
10010;DHT22;5044;48.652;9.250;2023-03-01T10:15:59;7.70;62.20
10010;DHT22;5044;48.652;9.250;2023-03-01T10:18:30;7.80;61.40
10010;DHT22;5044;48.652;9.250;2023-03-01T10:21:00;7.80;62.30
10010;DHT22;5044;48.652;9.250;2023-03-01T10:23:30;7.60;59.00
10010;DHT22;5044;48.652;9.250;2023-03-01T10:26:09;7.80;60.60
10010;DHT22;5044;48.652;9.250;2023-03-01T10:28:47;8.10;62.10
10010;DHT22;5044;48.652;9.250;2023-03-01T10:31:19;8.40;61.80
10010;DHT22;5044;48.652;9.250;2023-03-01T10:33:49;8.30;59.30
10010;DHT22;5044;48.652;9.250;2023-03-01T10:36:20;8.20;57.50
10010;DHT22;5044;48.652;9.250;2023-03-01T10:38:49;8.00;56.60
10010;DHT22;5044;48.652;9.250;2023-03-01T10:41:18;8.00;57.40
10010;DHT22;5044;48.652;9.250;2023-03-01T10:43:47;8.50;61.70
10010;DHT22;5044;48.652;9.250;2023-03-01T10:46:26;8.90;59.60
10010;DHT22;5044;48.652;9.250;2023-03-01T10:49:15;9.00;58.60
10010;DHT22;5044;48.652;9.250;2023-03-01T10:51:44;9.00;59.00
10010;DHT22;5044;48.652;9.250;2023-03-01T10:54:21;9.50;59.80
10010;DHT22;5044;48.652;9.250;2023-03-01T10:56:53;9.30;58.40
10010;DHT22;5044;48.652;9.250;2023-03-01T10:59:26;9.50;58.40
10010;DHT22;5044;48.652;9.250;2023-03-01T11:02:14;9.60;58.00
10010;DHT22;5044;48.652;9.250;2023-03-01T11:04:57;10.00;56.90
10010;DHT22;5044;48.652;9.250;2023-03-01T11:07:24;10.10;57.10
10010;DHT22;5044;48.652;9.250;2023-03-01T11:09:51;9.50;55.20
10010;DHT22;5044;48.652;9.250;2023-03-01T11:12:20;9.70;56.70
10010;DHT22;5044;48.652;9.250;2023-03-01T11:14:48;9.90;56.70
10010;DHT22;5044;48.652;9.250;2023-03-01T11:17:18;9.80;55.70
10010;DHT22;5044;48.652;9.250;2023-03-01T11:20:00;10.30;58.60
10010;DHT22;5044;48.652;9.250;2023-03-01T11:22:27;10.50;56.50
10010;DHT22;5044;48.652;9.250;2023-03-01T11:24:55;10.40;54.20
10010;DHT22;5044;48.652;9.250;2023-03-01T11:27:25;10.60;56.20
10010;DHT22;5044;48.652;9.250;2023-03-01T11:29:57;11.00;57.30
10010;DHT22;5044;48.652;9.250;2023-03-01T11:32:29;11.00;54.70
10010;DHT22;5044;48.652;9.250;2023-03-01T11:35:03;11.20;55.00
10010;DHT22;5044;48.652;9.250;2023-03-01T11:37:36;11.00;53.30
10010;DHT22;5044;48.652;9.250;2023-03-01T11:40:12;11.30;54.90
10010;DHT22;5044;48.652;9.250;2023-03-01T11:42:48;11.60;55.00
10010;DHT22;5044;48.652;9.250;2023-03-01T11:45:16;11.60;54.20
10010;DHT22;5044;48.652;9.250;2023-03-01T11:47:59;11.80;55.20
10010;DHT22;5044;48.652;9.250;2023-03-01T11:50:35;11.60;52.00
10010;DHT22;5044;48.652;9.250;2023-03-01T11:53:35;11.10;50.70
10010;DHT22;5044;48.652;9.250;2023-03-01T11:56:20;10.50;49.60
10010;DHT22;5044;48.652;9.250;2023-03-01T11:59:08;10.60;50.70
10010;DHT22;5044;48.652;9.250;2023-03-01T12:01:46;11.10;52.60
10010;DHT22;5044;48.652;9.250;2023-03-01T12:04:52;11.20;52.80
10010;DHT22;5044;48.652;9.250;2023-03-01T12:07:27;11.60;53.50
10010;DHT22;5044;48.652;9.250;2023-03-01T12:10:30;12.20;55.40
10010;DHT22;5044;48.652;9.250;2023-03-01T12:16:15;12.40;52.80
10010;DHT22;5044;48.652;9.250;2023-03-01T12:19:08;12.90;54.50
10010;DHT22;5044;48.652;9.250;2023-03-01T12:21:46;13.00;53.00
10010;DHT22;5044;48.652;9.250;2023-03-01T12:24:31;12.80;51.80
10010;DHT22;5044;48.652;9.250;2023-03-01T12:27:13;12.80;50.90
10010;DHT22;5044;48.652;9.250;2023-03-01T12:29:50;11.90;48.80
10010;DHT22;5044;48.652;9.250;2023-03-01T12:32:33;10.60;47.10
10010;DHT22;5044;48.652;9.250;2023-03-01T12:38:08;10.50;49.30
10010;DHT22;5044;48.652;9.250;2023-03-01T12:43:50;10.90;49.00
10010;DHT22;5044;48.652;9.250;2023-03-01T12:46:28;11.40;49.60
10010;DHT22;5044;48.652;9.250;2023-03-01T12:49:08;11.40;48.90
10010;DHT22;5044;48.652;9.250;2023-03-01T12:51:38;10.70;47.50
10010;DHT22;5044;48.652;9.250;2023-03-01T12:54:11;10.80;48.00
10010;DHT22;5044;48.652;9.250;2023-03-01T12:56:41;11.00;48.80
10010;DHT22;5044;48.652;9.250;2023-03-01T12:59:14;11.10;48.30
10010;DHT22;5044;48.652;9.250;2023-03-01T13:01:49;11.30;48.70
10010;DHT22;5044;48.652;9.250;2023-03-01T13:04:34;11.10;48.20
10010;DHT22;5044;48.652;9.250;2023-03-01T13:07:23;10.50;47.20
10010;DHT22;5044;48.652;9.250;2023-03-01T13:09:59;11.30;50.30
10010;DHT22;5044;48.652;9.250;2023-03-01T13:12:52;12.20;51.90
10010;DHT22;5044;48.652;9.250;2023-03-01T13:15:29;13.00;53.20
10010;DHT22;5044;48.652;9.250;2023-03-01T13:17:58;13.10;52.00
10010;DHT22;5044;48.652;9.250;2023-03-01T13:20:30;12.80;49.30
10010;DHT22;5044;48.652;9.250;2023-03-01T13:23:24;11.80;47.50
10010;DHT22;5044;48.652;9.250;2023-03-01T13:26:16;11.60;48.00
10010;DHT22;5044;48.652;9.250;2023-03-01T13:29:00;11.70;48.60
10010;DHT22;5044;48.652;9.250;2023-03-01T13:31:59;10.90;47.10
10010;DHT22;5044;48.652;9.250;2023-03-01T13:34:42;10.60;47.90
10010;DHT22;5044;48.652;9.250;2023-03-01T13:37:10;10.20;48.40
10010;DHT22;5044;48.652;9.250;2023-03-01T13:39:40;11.20;50.90
10010;DHT22;5044;48.652;9.250;2023-03-01T13:45:19;11.10;49.80
10010;DHT22;5044;48.652;9.250;2023-03-01T13:47:52;10.90;49.00
10010;DHT22;5044;48.652;9.250;2023-03-01T13:50:24;11.50;51.70
10010;DHT22;5044;48.652;9.250;2023-03-01T13:52:54;10.80;49.00
10010;DHT22;5044;48.652;9.250;2023-03-01T13:55:23;10.50;48.20
10010;DHT22;5044;48.652;9.250;2023-03-01T13:57:54;10.60;49.30
10010;DHT22;5044;48.652;9.250;2023-03-01T14:00:31;10.80;50.00
10010;DHT22;5044;48.652;9.250;2023-03-01T14:03:11;11.00;49.70
10010;DHT22;5044;48.652;9.250;2023-03-01T14:05:39;11.30;51.10
10010;DHT22;5044;48.652;9.250;2023-03-01T14:08:19;11.20;50.70
10010;DHT22;5044;48.652;9.250;2023-03-01T14:11:00;11.10;50.40
10010;DHT22;5044;48.652;9.250;2023-03-01T14:13:48;11.50;51.30
10010;DHT22;5044;48.652;9.250;2023-03-01T14:16:28;11.00;49.00
10010;DHT22;5044;48.652;9.250;2023-03-01T14:19:08;10.60;48.80
10010;DHT22;5044;48.652;9.250;2023-03-01T14:21:37;11.70;51.90
10010;DHT22;5044;48.652;9.250;2023-03-01T14:24:05;11.90;52.30
10010;DHT22;5044;48.652;9.250;2023-03-01T14:26:32;12.20;52.70
10010;DHT22;5044;48.652;9.250;2023-03-01T14:29:02;12.30;52.00
10010;DHT22;5044;48.652;9.250;2023-03-01T14:31:35;12.20;50.70
10010;DHT22;5044;48.652;9.250;2023-03-01T14:34:04;11.80;49.60
10010;DHT22;5044;48.652;9.250;2023-03-01T14:36:33;12.10;52.10
10010;DHT22;5044;48.652;9.250;2023-03-01T14:39:01;12.50;53.30
10010;DHT22;5044;48.652;9.250;2023-03-01T14:41:33;12.70;52.50
10010;DHT22;5044;48.652;9.250;2023-03-01T14:44:02;12.30;50.50
10010;DHT22;5044;48.652;9.250;2023-03-01T14:46:33;12.70;53.00
10010;DHT22;5044;48.652;9.250;2023-03-01T14:49:04;13.10;53.20
10010;DHT22;5044;48.652;9.250;2023-03-01T14:51:36;13.00;52.20
10010;DHT22;5044;48.652;9.250;2023-03-01T14:54:04;13.00;53.30
10010;DHT22;5044;48.652;9.250;2023-03-01T14:56:44;13.20;52.90
10010;DHT22;5044;48.652;9.250;2023-03-01T14:59:11;13.10;52.50
10010;DHT22;5044;48.652;9.250;2023-03-01T15:01:40;13.10;52.10
10010;DHT22;5044;48.652;9.250;2023-03-01T15:04:12;12.90;51.60
10010;DHT22;5044;48.652;9.250;2023-03-01T15:06:40;12.40;49.70
10010;DHT22;5044;48.652;9.250;2023-03-01T15:09:13;12.00;50.50
10010;DHT22;5044;48.652;9.250;2023-03-01T15:11:40;12.40;52.30
10010;DHT22;5044;48.652;9.250;2023-03-01T15:14:27;11.90;51.10
10010;DHT22;5044;48.652;9.250;2023-03-01T15:16:55;12.00;52.70
10010;DHT22;5044;48.652;9.250;2023-03-01T15:19:24;11.80;52.30
10010;DHT22;5044;48.652;9.250;2023-03-01T15:21:53;11.90;52.90
10010;DHT22;5044;48.652;9.250;2023-03-01T15:24:23;11.70;52.40
10010;DHT22;5044;48.652;9.250;2023-03-01T15:26:52;11.40;52.70
10010;DHT22;5044;48.652;9.250;2023-03-01T15:29:22;11.40;52.80
10010;DHT22;5044;48.652;9.250;2023-03-01T15:31:57;10.80;51.60
10010;DHT22;5044;48.652;9.250;2023-03-01T15:34:28;10.90;53.20
10010;DHT22;5044;48.652;9.250;2023-03-01T15:36:57;11.00;54.40
10010;DHT22;5044;48.652;9.250;2023-03-01T15:39:37;10.90;54.30
10010;DHT22;5044;48.652;9.250;2023-03-01T15:42:07;10.60;53.50
10010;DHT22;5044;48.652;9.250;2023-03-01T15:44:36;10.60;53.90
10010;DHT22;5044;48.652;9.250;2023-03-01T15:47:08;10.40;52.90
10010;DHT22;5044;48.652;9.250;2023-03-01T15:49:52;9.90;53.30
10010;DHT22;5044;48.652;9.250;2023-03-01T15:52:22;10.00;54.00
10010;DHT22;5044;48.652;9.250;2023-03-01T15:54:55;9.70;54.40
10010;DHT22;5044;48.652;9.250;2023-03-01T15:57:22;9.70;55.40
10010;DHT22;5044;48.652;9.250;2023-03-01T15:59:49;9.60;55.40
10010;DHT22;5044;48.652;9.250;2023-03-01T16:02:16;9.40;55.00
10010;DHT22;5044;48.652;9.250;2023-03-01T16:04:46;9.40;56.30
10010;DHT22;5044;48.652;9.250;2023-03-01T16:07:15;9.30;56.00
10010;DHT22;5044;48.652;9.250;2023-03-01T16:09:43;9.20;55.80
10010;DHT22;5044;48.652;9.250;2023-03-01T16:12:12;9.10;56.70
10010;DHT22;5044;48.652;9.250;2023-03-01T16:14:41;9.10;56.90
10010;DHT22;5044;48.652;9.250;2023-03-01T16:17:08;8.90;57.40
10010;DHT22;5044;48.652;9.250;2023-03-01T16:19:35;8.80;56.70
10010;DHT22;5044;48.652;9.250;2023-03-01T16:22:03;8.80;57.80
10010;DHT22;5044;48.652;9.250;2023-03-01T16:24:31;8.70;57.90
10010;DHT22;5044;48.652;9.250;2023-03-01T16:27:01;8.60;57.10
10010;DHT22;5044;48.652;9.250;2023-03-01T16:29:28;8.40;57.30
10010;DHT22;5044;48.652;9.250;2023-03-01T16:31:55;8.30;58.50